createdAt,value
2024-01-24T00:02:18.289Z,94.10
2024-01-24T00:04:45.233Z,94.10
2024-01-24T00:07:12.150Z,94.20
2024-01-24T00:09:39.054Z,94.20
2024-01-24T00:12:06.286Z,94.20
2024-01-24T00:14:33.271Z,94.20
2024-01-24T00:17:00.191Z,94.20
2024-01-24T00:19:27.121Z,94.20
2024-01-24T00:21:54.217Z,94.20
2024-01-24T00:24:21.159Z,94.10
2024-01-24T00:26:48.087Z,94.10
2024-01-24T00:29:15.376Z,94.20
2024-01-24T00:31:42.362Z,94.10
2024-01-24T00:34:09.483Z,94.30
2024-01-24T00:36:36.517Z,94.20
2024-01-24T00:39:03.712Z,94.20
2024-01-24T00:41:30.587Z,94.30
2024-01-24T00:43:57.523Z,94.20
2024-01-24T00:46:24.450Z,94.20
2024-01-24T00:48:51.659Z,94.10
2024-01-24T00:51:18.678Z,94.10
2024-01-24T00:53:54.184Z,94.20
2024-01-24T00:56:21.653Z,94.10
2024-01-24T00:58:48.540Z,94.10
2024-01-24T01:01:15.481Z,94.10
2024-01-24T01:03:42.515Z,94.20
2024-01-24T01:06:09.448Z,94.20
2024-01-24T01:08:36.363Z,94.30
2024-01-24T01:11:03.482Z,94.10
2024-01-24T01:13:30.381Z,94.10
2024-01-24T01:15:57.274Z,94.10
2024-01-24T01:18:24.355Z,94.10
2024-01-24T01:20:51.256Z,94.10
2024-01-24T01:23:18.173Z,94.40
2024-01-24T01:25:45.234Z,94.30
2024-01-24T01:28:12.285Z,94.30
2024-01-24T01:30:39.161Z,94.10
2024-01-24T01:33:06.235Z,94.10
2024-01-24T01:35:34.482Z,94.40
2024-01-24T01:38:01.524Z,94.20
2024-01-24T01:40:29.093Z,94.10
2024-01-24T01:42:56.091Z,94.20
2024-01-24T01:45:24.314Z,94.10
2024-01-24T01:47:52.478Z,94.20
2024-01-24T01:50:20.239Z,94.20
2024-01-24T01:52:47.421Z,94.20
2024-01-24T01:55:15.278Z,94.10
2024-01-24T01:57:43.680Z,94.20
2024-01-24T02:00:11.687Z,94.10
2024-01-24T02:02:38.768Z,94.10
2024-01-24T02:05:05.981Z,94.20
2024-01-24T02:07:32.998Z,94.30
2024-01-24T02:10:00.500Z,94.10
2024-01-24T02:12:27.486Z,94.20
2024-01-24T02:14:54.429Z,94.30
2024-01-24T02:17:21.390Z,94.20
2024-01-24T02:19:48.295Z,94.40
2024-01-24T02:22:15.200Z,94.20
2024-01-24T02:24:42.335Z,94.50
2024-01-24T02:27:10.130Z,94.10
2024-01-24T02:29:37.229Z,94.20
2024-01-24T02:32:04.386Z,94.20
2024-01-24T02:34:31.416Z,94.20
2024-01-24T02:36:58.546Z,94.10
2024-01-24T02:39:25.523Z,94.20
2024-01-24T02:41:52.463Z,94.20
2024-01-24T02:44:19.786Z,94.20
2024-01-24T02:46:46.713Z,94.30
2024-01-24T02:49:13.655Z,94.40
2024-01-24T02:51:40.617Z,94.30
2024-01-24T02:54:07.677Z,94.20
2024-01-24T02:56:34.870Z,94.20
2024-01-24T02:59:01.852Z,94.10
2024-01-24T03:01:28.873Z,94.20
2024-01-24T03:03:55.880Z,94.20
2024-01-24T03:06:23.176Z,94.20
2024-01-24T03:08:58.011Z,94.30
2024-01-24T03:11:25.289Z,94.30
2024-01-24T03:13:52.250Z,94.20
2024-01-24T03:16:19.275Z,94.10
2024-01-24T03:18:46.268Z,94.20
2024-01-24T03:21:17.247Z,94.20
2024-01-24T03:23:44.759Z,94.20
2024-01-24T03:26:12.231Z,94.30
2024-01-24T03:28:39.124Z,94.20
2024-01-24T03:31:06.187Z,94.10
2024-01-24T03:33:33.181Z,94.30
2024-01-24T03:36:00.073Z,94.20
2024-01-24T03:38:27.012Z,94.30
2024-01-24T03:40:54.001Z,94.20
2024-01-24T03:43:20.952Z,94.10
2024-01-24T03:45:48.051Z,94.20
2024-01-24T03:48:15.696Z,94.20
2024-01-24T03:50:42.652Z,94.40
2024-01-24T03:53:09.601Z,94.20
2024-01-24T03:55:36.439Z,94.30
2024-01-24T03:58:03.349Z,94.40
2024-01-24T04:00:30.251Z,94.60
2024-01-24T04:02:57.131Z,94.50
2024-01-24T04:05:23.994Z,94.40
2024-01-24T04:07:51.052Z,94.20
2024-01-24T04:10:18.007Z,94.60
2024-01-24T04:12:44.973Z,94.20
2024-01-24T04:15:12.481Z,94.20
2024-01-24T04:17:39.483Z,94.20
2024-01-24T04:20:07.024Z,94.40
2024-01-24T04:22:34.231Z,94.20
2024-01-24T04:25:01.761Z,94.10
2024-01-24T04:27:28.928Z,94.20
2024-01-24T04:29:56.127Z,94.20
2024-01-24T04:32:23.309Z,94.10
2024-01-24T04:34:50.312Z,94.30
2024-01-24T04:37:17.285Z,94.20
2024-01-24T04:39:44.183Z,94.10
2024-01-24T04:42:16.347Z,94.20
2024-01-24T04:44:44.848Z,94.10
2024-01-24T04:47:14.904Z,94.10
2024-01-24T04:49:45.280Z,94.30
2024-01-24T04:52:13.423Z,94.30
2024-01-24T04:54:41.784Z,94.20
2024-01-24T04:57:08.811Z,94.20
2024-01-24T04:59:53.376Z,94.10
2024-01-24T05:02:23.791Z,94.20
2024-01-24T05:04:50.948Z,94.20
2024-01-24T05:07:18.106Z,94.20
2024-01-24T05:09:45.266Z,94.20
2024-01-24T05:12:12.392Z,94.10
2024-01-24T05:14:39.318Z,94.20
2024-01-24T05:17:06.192Z,94.20
2024-01-24T05:19:34.144Z,94.30
2024-01-24T05:22:01.358Z,94.20
2024-01-24T05:24:28.381Z,94.10
2024-01-24T05:26:55.409Z,94.20
2024-01-24T05:29:22.267Z,94.10
2024-01-24T05:31:49.259Z,94.10
2024-01-24T05:34:16.398Z,94.30
2024-01-24T05:36:43.436Z,94.20
2024-01-24T05:39:10.407Z,94.30
2024-01-24T05:41:37.365Z,94.20
2024-01-24T05:44:04.659Z,94.10
2024-01-24T05:46:32.279Z,94.00
2024-01-24T05:49:02.490Z,94.20
2024-01-24T05:51:29.997Z,94.50
2024-01-24T05:53:57.012Z,94.10
2024-01-24T05:56:23.997Z,94.20
2024-01-24T05:58:50.912Z,94.10
2024-01-24T06:01:17.962Z,94.40
2024-01-24T06:03:45.212Z,94.40
2024-01-24T06:06:12.547Z,94.20
2024-01-24T06:08:40.163Z,94.10
2024-01-24T06:11:07.212Z,94.30
2024-01-24T06:13:34.115Z,94.40
2024-01-24T06:16:01.158Z,94.10
2024-01-24T06:18:28.489Z,94.20
2024-01-24T06:20:55.454Z,94.10
2024-01-24T06:23:22.382Z,94.20
2024-01-24T06:25:49.341Z,94.40
2024-01-24T06:28:16.871Z,94.20
2024-01-24T06:30:43.735Z,94.10
2024-01-24T06:33:10.700Z,94.10
2024-01-24T06:35:37.647Z,94.30
2024-01-24T06:38:04.776Z,94.20
2024-01-24T06:40:31.734Z,94.20
2024-01-24T06:42:58.769Z,94.10
2024-01-24T06:45:25.922Z,94.20
2024-01-24T06:47:52.898Z,94.20
2024-01-24T06:50:20.044Z,94.10
2024-01-24T06:52:47.011Z,94.10
2024-01-24T06:55:15.049Z,94.10
2024-01-24T06:57:42.062Z,94.30
2024-01-24T07:00:09.971Z,94.40
2024-01-24T07:02:37.871Z,94.20
2024-01-24T07:05:05.323Z,94.50
2024-01-24T07:07:32.769Z,94.20
2024-01-24T07:09:59.729Z,94.10
2024-01-24T07:12:26.694Z,94.10
2024-01-24T07:14:53.959Z,94.30
2024-01-24T07:17:21.388Z,94.00
2024-01-24T07:19:48.867Z,94.30
2024-01-24T07:22:17.791Z,94.00
2024-01-24T07:24:48.215Z,94.00
2024-01-24T07:27:15.360Z,94.20
2024-01-24T07:29:42.406Z,94.10
2024-01-24T07:32:09.463Z,94.20
2024-01-24T07:34:40.588Z,94.30
2024-01-24T07:37:09.185Z,94.10
2024-01-24T07:39:36.400Z,94.00
2024-01-24T07:42:03.579Z,94.20
2024-01-24T07:44:30.914Z,94.00
2024-01-24T07:46:59.718Z,94.00
2024-01-24T07:49:27.086Z,94.00
2024-01-24T07:51:55.528Z,94.20
2024-01-24T07:54:23.271Z,94.40
2024-01-24T07:56:50.391Z,94.00
2024-01-24T07:59:18.464Z,93.90
2024-01-24T08:01:47.118Z,94.00
2024-01-24T08:04:14.813Z,94.50
2024-01-24T08:06:47.505Z,94.20
2024-01-24T08:09:15.121Z,94.20
2024-01-24T08:11:42.386Z,94.30
2024-01-24T08:14:11.273Z,94.10
2024-01-24T08:16:38.389Z,93.90
2024-01-24T08:19:05.474Z,94.00
2024-01-24T08:21:32.481Z,94.00
2024-01-24T08:23:59.442Z,93.80
2024-01-24T08:26:26.308Z,93.80
2024-01-24T08:28:54.059Z,93.70
2024-01-24T08:31:21.132Z,93.70
2024-01-24T08:33:51.357Z,93.70
2024-01-24T08:36:20.539Z,93.70
2024-01-24T08:38:47.673Z,93.80
2024-01-24T08:41:14.646Z,93.90
2024-01-24T08:43:41.740Z,93.80
2024-01-24T08:46:08.777Z,93.90
2024-01-24T08:48:35.797Z,93.60
2024-01-24T08:51:02.866Z,93.70
2024-01-24T08:53:29.736Z,93.60
2024-01-24T08:55:56.703Z,93.80
2024-01-24T08:58:27.037Z,93.70
2024-01-24T09:00:54.108Z,93.60
2024-01-24T09:03:21.272Z,93.80
2024-01-24T09:05:48.420Z,93.80
2024-01-24T09:08:17.677Z,93.60
2024-01-24T09:10:44.686Z,93.80
2024-01-24T09:13:11.787Z,93.70
2024-01-24T09:15:39.173Z,93.70
2024-01-24T09:18:08.533Z,93.70
2024-01-24T09:20:35.848Z,93.70
2024-01-24T09:23:02.910Z,93.70
2024-01-24T09:25:29.870Z,93.80
2024-01-24T09:27:57.850Z,94.00
2024-01-24T09:30:25.090Z,93.90
2024-01-24T09:32:53.158Z,93.80
2024-01-24T09:35:20.510Z,93.70
2024-01-24T09:37:48.419Z,93.80
2024-01-24T09:40:18.548Z,93.90
2024-01-24T09:42:47.924Z,93.80
2024-01-24T09:45:19.322Z,93.90
2024-01-24T09:47:47.690Z,93.70
2024-01-24T09:50:15.322Z,93.60
2024-01-24T09:52:44.915Z,93.90
2024-01-24T09:55:15.872Z,94.00
2024-01-24T09:57:43.003Z,93.70
2024-01-24T10:00:11.066Z,93.90
2024-01-24T10:02:38.414Z,93.80
2024-01-24T10:05:09.122Z,93.80
2024-01-24T10:07:36.053Z,93.70
2024-01-24T10:10:19.378Z,93.90
2024-01-24T10:12:46.681Z,93.80
2024-01-24T10:15:14.307Z,93.80
2024-01-24T10:17:42.736Z,93.80
2024-01-24T10:20:10.577Z,94.00
2024-01-24T10:22:37.535Z,93.80
2024-01-24T10:25:04.747Z,93.80
2024-01-24T10:27:34.844Z,93.80
2024-01-24T10:30:02.202Z,93.90
2024-01-24T10:32:29.632Z,93.90
2024-01-24T10:34:57.309Z,94.00
2024-01-24T10:37:24.577Z,93.90
2024-01-24T10:39:52.944Z,93.90
2024-01-24T10:42:21.216Z,94.00
2024-01-24T10:44:51.134Z,93.90
2024-01-24T10:47:19.003Z,94.20
2024-01-24T10:49:48.052Z,94.00
2024-01-24T10:52:16.527Z,94.30
2024-01-24T10:54:44.990Z,94.00
2024-01-24T10:57:13.941Z,94.00
2024-01-24T10:59:41.312Z,94.10
2024-01-24T11:02:09.103Z,94.10
2024-01-24T11:04:38.138Z,94.00
2024-01-24T11:07:07.634Z,94.20
2024-01-24T11:09:37.297Z,94.10
2024-01-24T11:12:09.888Z,94.40
2024-01-24T11:14:43.720Z,94.30
2024-01-24T11:17:11.196Z,93.90
2024-01-24T11:19:38.207Z,94.00
2024-01-24T11:22:19.684Z,94.00
2024-01-24T11:24:54.232Z,94.00
2024-01-24T11:27:28.997Z,94.10
2024-01-24T11:29:57.546Z,94.40
2024-01-24T11:32:43.657Z,94.40
2024-01-24T11:35:26.218Z,94.30
2024-01-24T11:38:08.144Z,94.40
2024-01-24T11:40:40.133Z,94.40
2024-01-24T11:43:07.450Z,94.40
2024-01-24T11:45:35.496Z,94.10
2024-01-24T11:48:02.646Z,94.20
2024-01-24T11:50:29.965Z,94.30
2024-01-24T11:53:00.829Z,94.40
2024-01-24T11:55:29.465Z,94.20
2024-01-24T11:57:57.171Z,94.10
2024-01-24T12:00:29.429Z,94.40
2024-01-24T12:02:56.399Z,94.20
2024-01-24T12:05:23.542Z,94.40
2024-01-24T12:07:50.495Z,94.40
2024-01-24T12:10:18.327Z,94.30
2024-01-24T12:12:45.462Z,94.20
2024-01-24T12:15:12.517Z,94.30
2024-01-24T12:17:41.337Z,94.40
2024-01-24T12:20:10.609Z,94.20
2024-01-24T12:22:38.158Z,94.30
2024-01-24T12:25:05.465Z,94.20
2024-01-24T12:27:32.616Z,94.50
2024-01-24T12:29:59.669Z,94.40
2024-01-24T12:32:26.948Z,94.40
2024-01-24T12:34:54.733Z,94.40
2024-01-24T12:37:23.139Z,94.50
2024-01-24T12:39:54.886Z,94.50
2024-01-24T12:42:21.935Z,94.40
2024-01-24T12:44:55.268Z,94.50
2024-01-24T12:47:22.842Z,94.50
2024-01-24T12:49:50.182Z,94.30
2024-01-24T12:52:18.012Z,94.40
2024-01-24T12:54:45.242Z,94.40
2024-01-24T12:57:12.260Z,94.30
2024-01-24T12:59:39.354Z,94.30
2024-01-24T13:02:06.445Z,94.40
2024-01-24T13:04:34.282Z,94.30
2024-01-24T13:07:01.633Z,94.40
2024-01-24T13:09:31.333Z,94.50
2024-01-24T13:12:01.783Z,94.30
2024-01-24T13:14:30.015Z,94.50
2024-01-24T13:16:56.890Z,94.40
2024-01-24T13:19:25.556Z,94.30
2024-01-24T13:21:52.589Z,94.50
2024-01-24T13:24:19.507Z,94.50
2024-01-24T13:26:46.489Z,94.20
2024-01-24T13:29:13.440Z,94.50
2024-01-24T13:31:40.441Z,94.40
2024-01-24T13:34:07.740Z,94.40
2024-01-24T13:36:34.909Z,94.30
2024-01-24T13:39:09.783Z,94.60
2024-01-24T13:41:36.939Z,94.40
2024-01-24T13:44:05.257Z,94.40
2024-01-24T13:46:32.270Z,94.40
2024-01-24T13:48:59.927Z,94.30
2024-01-24T13:51:31.173Z,94.50
2024-01-24T13:54:08.897Z,94.40
2024-01-24T13:56:35.816Z,94.40
2024-01-24T13:59:02.871Z,94.60
2024-01-24T14:01:30.243Z,94.40
2024-01-24T14:03:57.287Z,94.40
2024-01-24T14:06:24.548Z,94.40
2024-01-24T14:08:51.506Z,94.60
2024-01-24T14:11:18.987Z,94.50
2024-01-24T14:13:50.770Z,94.50
2024-01-24T14:16:18.719Z,94.50
2024-01-24T14:18:45.725Z,94.50
2024-01-24T14:21:12.814Z,94.60
2024-01-24T14:23:45.564Z,94.30
2024-01-24T14:26:13.731Z,94.50
2024-01-24T14:28:40.778Z,94.50
2024-01-24T14:31:07.829Z,94.60
2024-01-24T14:33:35.537Z,94.40
2024-01-24T14:36:03.264Z,94.60
2024-01-24T14:38:30.251Z,94.50
2024-01-24T14:40:57.154Z,94.30
2024-01-24T14:43:24.052Z,94.50
2024-01-24T14:45:51.095Z,94.30
2024-01-24T14:48:18.135Z,94.40
2024-01-24T14:50:47.107Z,94.40
2024-01-24T14:53:14.251Z,94.40
2024-01-24T14:55:41.227Z,94.30
2024-01-24T14:58:08.116Z,94.50
2024-01-24T15:00:35.249Z,94.50
2024-01-24T15:03:02.153Z,94.40
2024-01-24T15:05:29.095Z,94.50
2024-01-24T15:07:56.358Z,94.60
2024-01-24T15:10:23.532Z,94.40
2024-01-24T15:12:50.632Z,94.60
2024-01-24T15:15:17.846Z,94.50
2024-01-24T15:17:44.822Z,94.60
2024-01-24T15:20:12.337Z,94.40
2024-01-24T15:22:41.872Z,94.60
2024-01-24T15:25:09.606Z,94.60
2024-01-24T15:27:36.839Z,94.70
2024-01-24T15:30:04.615Z,94.50
2024-01-24T15:32:32.926Z,94.50
2024-01-24T15:35:00.179Z,94.40
2024-01-24T15:37:27.496Z,94.50
2024-01-24T15:39:54.621Z,94.30
2024-01-24T15:42:23.215Z,94.30
2024-01-24T15:44:50.358Z,94.40
2024-01-24T15:47:18.454Z,94.30
2024-01-24T15:49:45.730Z,94.40
2024-01-24T15:52:14.864Z,94.50
2024-01-24T15:54:43.853Z,94.30
2024-01-24T15:57:10.764Z,94.50
2024-01-24T15:59:37.882Z,94.40
2024-01-24T16:02:05.209Z,94.30
2024-01-24T16:04:34.804Z,94.30
2024-01-24T16:07:02.198Z,94.30
2024-01-24T16:09:29.400Z,94.30
2024-01-24T16:11:56.505Z,94.40
2024-01-24T16:14:29.750Z,94.30
2024-01-24T16:16:57.135Z,94.40
2024-01-24T16:19:24.618Z,94.30
2024-01-24T16:21:53.614Z,94.40
2024-01-24T16:24:20.658Z,94.40
2024-01-24T16:26:47.770Z,94.40
2024-01-24T16:29:15.674Z,94.40
2024-01-24T16:31:42.683Z,94.40
2024-01-24T16:34:09.657Z,94.50
2024-01-24T16:36:36.849Z,94.30
2024-01-24T16:39:04.260Z,94.50
2024-01-24T16:41:31.121Z,94.60
2024-01-24T16:43:58.032Z,94.30
2024-01-24T16:46:24.951Z,94.30
2024-01-24T16:48:52.043Z,94.40
2024-01-24T16:51:19.092Z,94.30
2024-01-24T16:53:46.004Z,94.30
2024-01-24T16:56:12.889Z,94.40
2024-01-24T16:58:41.744Z,94.40
2024-01-24T17:01:08.755Z,94.30
2024-01-24T17:03:35.869Z,94.40
2024-01-24T17:06:03.170Z,94.40
2024-01-24T17:08:30.134Z,94.40
2024-01-24T17:10:57.438Z,94.40
2024-01-24T17:13:24.602Z,94.40
2024-01-24T17:15:51.535Z,94.40
2024-01-24T17:18:19.256Z,94.40
2024-01-24T17:20:46.205Z,94.40
2024-01-24T17:23:13.145Z,94.40
2024-01-24T17:25:40.125Z,94.40
2024-01-24T17:28:07.244Z,94.40
2024-01-24T17:30:35.205Z,94.40
2024-01-24T17:33:02.259Z,94.50
2024-01-24T17:35:29.478Z,94.40
2024-01-24T17:37:56.882Z,94.40
2024-01-24T17:40:24.256Z,94.40
2024-01-24T17:42:51.235Z,94.40
2024-01-24T17:45:18.183Z,94.40
2024-01-24T17:47:45.252Z,94.40
2024-01-24T17:50:12.557Z,94.40
2024-01-24T17:52:40.798Z,94.70
2024-01-24T17:55:08.154Z,94.40
2024-01-24T17:57:35.195Z,94.50
2024-01-24T18:00:05.828Z,94.30
2024-01-24T18:02:33.297Z,94.60
2024-01-24T18:05:00.314Z,94.30
2024-01-24T18:07:27.380Z,94.40
2024-01-24T18:09:56.618Z,94.40
2024-01-24T18:12:23.897Z,94.40
2024-01-24T18:14:50.882Z,94.40
2024-01-24T18:17:17.720Z,94.40
2024-01-24T18:19:44.956Z,94.50
2024-01-24T18:22:12.674Z,94.40
2024-01-24T18:24:39.653Z,94.40
2024-01-24T18:27:06.628Z,94.40
2024-01-24T18:29:34.125Z,94.50
2024-01-24T18:32:01.185Z,94.40
2024-01-24T18:34:28.533Z,94.40
2024-01-24T18:36:55.595Z,94.40
2024-01-24T18:39:22.753Z,94.50
2024-01-24T18:41:49.942Z,94.40
2024-01-24T18:44:17.580Z,94.40
2024-01-24T18:46:44.655Z,94.40
2024-01-24T18:49:13.181Z,94.40
2024-01-24T18:51:40.365Z,94.40
2024-01-24T18:54:07.375Z,94.40
2024-01-24T18:56:34.492Z,94.40
2024-01-24T18:59:01.611Z,94.40
2024-01-24T19:01:28.834Z,94.50
2024-01-24T19:03:56.892Z,94.50
2024-01-24T19:06:26.897Z,94.50
2024-01-24T19:08:53.929Z,94.50
2024-01-24T19:11:21.071Z,94.40
2024-01-24T19:13:48.122Z,94.40
2024-01-24T19:16:15.107Z,94.50
2024-01-24T19:18:44.086Z,94.80
2024-01-24T19:21:11.123Z,94.50
2024-01-24T19:23:38.056Z,94.50
2024-01-24T19:26:05.472Z,94.50
2024-01-24T19:28:32.442Z,94.50
2024-01-24T19:31:00.422Z,94.50
2024-01-24T19:33:28.203Z,94.50
2024-01-24T19:35:55.161Z,94.50
2024-01-24T19:38:22.083Z,94.50
2024-01-24T19:40:49.830Z,94.50
2024-01-24T19:43:17.751Z,94.40
2024-01-24T19:45:44.700Z,94.50
2024-01-24T19:48:14.051Z,94.50
2024-01-24T19:50:40.941Z,94.50
2024-01-24T19:53:10.635Z,94.50
2024-01-24T19:55:39.741Z,94.40
2024-01-24T19:58:06.750Z,94.50
2024-01-24T20:00:34.034Z,94.50
2024-01-24T20:03:01.000Z,94.50
2024-01-24T20:05:27.988Z,94.50
2024-01-24T20:07:54.969Z,94.50
2024-01-24T20:10:21.925Z,94.50
2024-01-24T20:12:48.859Z,94.50
2024-01-24T20:15:15.943Z,94.40
2024-01-24T20:17:46.835Z,94.40
2024-01-24T20:20:18.557Z,94.50
2024-01-24T20:22:45.589Z,94.50
2024-01-24T20:25:12.709Z,94.50
2024-01-24T20:27:39.797Z,94.40
2024-01-24T20:30:07.082Z,94.50
2024-01-24T20:32:40.120Z,94.50
2024-01-24T20:35:12.558Z,94.50
2024-01-24T20:37:39.902Z,94.50
2024-01-24T20:40:07.200Z,94.40
2024-01-24T20:42:34.228Z,94.50
2024-01-24T20:45:01.104Z,94.60
2024-01-24T20:47:28.634Z,94.40
2024-01-24T20:49:56.747Z,94.60
2024-01-24T20:52:24.139Z,94.40
2024-01-24T20:54:51.579Z,94.40
2024-01-24T20:57:18.687Z,94.40
2024-01-24T20:59:46.799Z,94.50
2024-01-24T21:02:14.176Z,94.40
2024-01-24T21:04:41.163Z,94.40
2024-01-24T21:07:08.908Z,94.50
2024-01-24T21:09:35.936Z,94.80
2024-01-24T21:12:02.956Z,94.50
2024-01-24T21:14:29.885Z,94.50
2024-01-24T21:16:56.760Z,94.50
2024-01-24T21:19:25.800Z,94.50
2024-01-24T21:21:53.247Z,94.50
2024-01-24T21:24:20.341Z,94.40
2024-01-24T21:26:48.351Z,94.70
2024-01-24T21:29:15.299Z,94.50
2024-01-24T21:31:46.812Z,94.50
2024-01-24T21:34:14.162Z,94.50
2024-01-24T21:36:47.610Z,94.50
2024-01-24T21:39:16.328Z,94.50
2024-01-24T21:41:43.283Z,94.40
2024-01-24T21:44:10.201Z,94.50
2024-01-24T21:46:37.098Z,94.50
2024-01-24T21:49:04.114Z,94.60
2024-01-24T21:51:31.749Z,94.60
2024-01-24T21:53:58.768Z,94.50
2024-01-24T21:56:25.728Z,94.70
2024-01-24T21:58:56.363Z,94.40
2024-01-24T22:01:24.491Z,94.80
2024-01-24T22:03:52.159Z,94.50
2024-01-24T22:06:19.329Z,94.50
2024-01-24T22:08:46.302Z,94.50
2024-01-24T22:11:15.616Z,94.50
2024-01-24T22:13:42.505Z,94.50
2024-01-24T22:16:09.541Z,94.60
2024-01-24T22:18:41.177Z,94.60
2024-01-24T22:21:14.582Z,94.70
2024-01-24T22:23:42.521Z,94.60
2024-01-24T22:26:09.415Z,94.60
2024-01-24T22:28:36.283Z,94.50
2024-01-24T22:31:03.292Z,94.50
2024-01-24T22:33:30.483Z,94.60
2024-01-24T22:35:57.533Z,94.60
2024-01-24T22:38:24.669Z,94.80
2024-01-24T22:40:51.602Z,94.50
2024-01-24T22:43:18.774Z,94.70
2024-01-24T22:45:46.478Z,94.80
2024-01-24T22:48:13.556Z,94.60
2024-01-24T22:50:41.564Z,94.60
2024-01-24T22:53:08.853Z,94.50
2024-01-24T22:55:35.937Z,94.50
2024-01-24T22:58:03.736Z,94.40
2024-01-24T23:00:31.155Z,94.60
2024-01-24T23:02:58.272Z,94.50
2024-01-24T23:05:25.379Z,94.60
2024-01-24T23:07:52.559Z,94.60
2024-01-24T23:10:20.191Z,94.60
2024-01-24T23:12:47.174Z,94.60
2024-01-24T23:15:14.360Z,94.60
2024-01-24T23:17:41.267Z,94.60
2024-01-24T23:20:09.662Z,94.50
2024-01-24T23:22:36.899Z,94.60
2024-01-24T23:25:04.208Z,94.50
2024-01-24T23:27:31.120Z,94.60
2024-01-24T23:29:58.176Z,94.50
2024-01-24T23:32:26.418Z,94.60
2024-01-24T23:34:53.529Z,94.40
2024-01-24T23:37:20.688Z,94.50
2024-01-24T23:39:47.668Z,94.50
2024-01-24T23:42:14.623Z,94.60
2024-01-24T23:44:42.633Z,94.50
2024-01-24T23:47:09.514Z,94.60
2024-01-24T23:49:37.165Z,94.80
2024-01-24T23:52:05.174Z,94.50
2024-01-24T23:54:32.321Z,94.40
2024-01-24T23:56:59.298Z,94.50
2024-01-24T23:59:26.746Z,94.50
